logo
Games tagged Thriller
# Game Release date
Price
Score rank
(Userscore / Metascore)
Owners
Players
Playtime (Median)
Developer(s)
Publisher(s)
1 F.E.A.R. Oct 17, 2005 $54.99N/A (N/A/88%)1,000,000 .. 2,000,0000%00:00 (00:00)Monolith Productions, Inc., TimegateWarner Bros. Interactive Entertainment
2 STEINS;GATE Sep 8, 2016 $29.99N/A (N/A/87%)200,000 .. 500,0007.14%00:01 (00:00)MAGES. Inc.Spike Chunsoft Co., Ltd.
3 Her Story Jun 24, 2015 $9.99N/A (N/A/86%)200,000 .. 500,0000%00:00 (00:00)Sam BarlowSam Barlow
4 Zero Escape: The Nonary Games Mar 24, 2017 $29.99N/A (N/A/86%)20,000 .. 50,0000%00:00 (00:00)Spike Chunsoft Co., Ltd.Spike Chunsoft Co., Ltd.
5 Telling Lies Aug 23, 2019 $19.99N/A (N/A/84%)20,000 .. 50,0000%00:00 (00:00)Sam Barlow, Half Mermaid, Furious Bee LimitedAnnapurna Interactive
6 Detention Jan 12, 2017 $11.99N/A (N/A/83%)500,000 .. 1,000,0000%00:00 (00:00)RedCandleGamesRedCandleGames, AGM PLAYISM
7 Alan Wake Feb 16, 2012 $14.99N/A (N/A/83%)200,000 .. 500,0000.76%00:45 (00:15)Remedy EntertainmentRemedy Entertainment
8 L.A. Noire Nov 8, 2011 $19.99N/A (N/A/83%)2,000,000 .. 5,000,0000%00:00 (00:00)Team Bondi, Rockstar LeedsRockstar Games
9 Firewatch Feb 9, 2016 $19.99N/A (N/A/81%)1,000,000 .. 2,000,0002.7%00:42 (00:27)Campo SantoPanic, Campo Santo
10 Stories Untold Feb 27, 2017 $9.99N/A (N/A/81%)100,000 .. 200,0000%00:00 (00:00)No CodeDevolver Digital
11 Oxenfree Jan 14, 2016 $9.99N/A (N/A/80%)200,000 .. 500,0000%00:00 (00:00)Night School StudioNight School Studio
12 Detective Di: The Silk Rose Murders May 1, 2019 $10.99N/A (N/A/80%)50,000 .. 100,0000%00:00 (00:00)Nupixo GamesNupixo Games, WhisperGames
13 Observation May 21, 2020 $24.99N/A (N/A/79%)200,000 .. 500,0000%00:00 (00:00)No CodeDevolver Digital
14 Late Shift Apr 18, 2017 $12.99N/A (N/A/79%)200,000 .. 500,0000%00:00 (00:00)CtrlMovieWales Interactive
15 Zero Escape: Zero Time Dilemma Jun 29, 2016 $19.99N/A (N/A/78%)20,000 .. 50,0000%00:00 (00:00)Spike Chunsoft Co., Ltd.Spike Chunsoft Co., Ltd.
16 Condemned: Criminal Origins Apr 11, 2006 $14.95N/A (N/A/78%)200,000 .. 500,0000%00:00 (00:00)MonolithSEGA
17 Dead Space 3 Jun 18, 2020 $19.99N/A (N/A/78%)200,000 .. 500,0007.69%00:01 (00:00)Visceral GamesElectronic Arts
18 Beyond: Two Souls Jun 18, 2020 $19.99N/A (N/A/76%)200,000 .. 500,0000%00:00 (00:00)Quantic DreamQuantic Dream
19 Still Life Jun 6, 2005 $0.79N/A (N/A/75%)100,000 .. 200,0000%00:00 (00:00)MicroidsMicroids
20 Heavy Rain Jun 18, 2020 $19.99N/A (N/A/75%)200,000 .. 500,0000%00:00 (00:00)Quantic DreamQuantic Dream
21 Evan's Remains Jun 11, 2020 $6.99N/A (N/A/75%)20,000 .. 50,0000%00:00 (00:00)maitan69 (Matías Schmied)Whitethorn Digital
22 VirtuaVerse May 12, 2020 $14.99N/A (N/A/75%)0 .. 20,0000%00:00 (00:00)Theta DivisionBlood Music
23 GET EVEN Jun 20, 2017 $29.99N/A (N/A/75%)20,000 .. 50,0000%00:00 (00:00)The Farm 51BANDAI NAMCO Entertainment
24 We. The Revolution Mar 21, 2019 $19.99N/A (N/A/75%)50,000 .. 100,0000%00:00 (00:00)PolyslashKlabater
25 Virginia Sep 22, 2016 $9.99N/A (N/A/74%)200,000 .. 500,0000%00:00 (00:00)Variable State505 Games
26 Alan Wake's American Nightmare May 22, 2012 $8.99N/A (N/A/73%)1,000,000 .. 2,000,0000%00:00 (00:00)Remedy EntertainmentRemedy Entertainment
27 Sherlock Holmes versus Jack the Ripper Dec 23, 2009 $9.99N/A (N/A/73%)100,000 .. 200,00011.11%07:00 (02:20)FrogwaresFrogwares
28 Post Mortem Nov 1, 2002 $7.99N/A (N/A/71%)100,000 .. 200,0000%00:00 (00:00)MC2Microids
29 Gray Dawn Jun 7, 2018 FreeN/A (N/A/71%)20,000 .. 50,000NAN%00:00 (00:00)Interactive StoneInteractive Stone
30 Moons of Madness Oct 22, 2019 $24.99N/A (N/A/69%)20,000 .. 50,0000%00:00 (00:00)Rock Pocket GamesFuncom
31 Home Jun 1, 2012 $4.99N/A (N/A/69%)200,000 .. 500,0000%00:00 (00:00)Benjamin Rivers Inc.Benjamin Rivers Inc.
32 The Fidelio Incident May 23, 2017 $9.99N/A (N/A/69%)20,000 .. 50,0000%00:00 (00:00)Act 3 Games, LLCAct 3 Games, LLC
33 The Signifier Oct 15, 2020 $19.99N/A (N/A/68%)0 .. 20,000NAN%00:00 (00:00)PlaymestudioRaw Fury
34 The Occupation Mar 5, 2019 $29.99N/A (N/A/68%)0 .. 20,0000%00:00 (00:00)White Paper GamesHumble Games
35 Hide and Shriek Oct 25, 2016 FreeN/A (N/A/68%)500,000 .. 1,000,0000%00:00 (00:00)FuncomFuncom
36 The Shattering Apr 21, 2020 $19.99N/A (N/A/68%)0 .. 20,000NAN%00:00 (00:00)Super Sexy SoftwareDeck13
37 The Park Oct 27, 2015 $12.99N/A (N/A/67%)50,000 .. 100,0000%00:00 (00:00)FuncomFuncom
38 Rainswept Feb 1, 2019 $11.99N/A (N/A/67%)0 .. 20,000NAN%00:00 (00:00)Frostwood InteractiveFrostwood Interactive
39 The Inner Friend Sep 6, 2018 $14.99N/A (N/A/66%)0 .. 20,000NAN%00:00 (00:00)PLAYMINDPLAYMIND
40 Sherlock Holmes: The Devil's Daughter Jun 10, 2016 $19.99N/A (N/A/65%)500,000 .. 1,000,0002.17%00:31 (00:10)FrogwaresNacon
41 Gods Will Be Watching Jul 24, 2014 $9.99N/A (N/A/64%)200,000 .. 500,0000%00:00 (00:00)DeconstructeamDevolver Digital
42 The Complex Mar 31, 2020 $12.99N/A (N/A/62%)20,000 .. 50,0000%00:00 (00:00)Wales Interactive, Good Gate Media, Little Jade ProductionsWales Interactive
43 Magnetic: Cage Closed May 26, 2015 $4.99N/A (N/A/61%)50,000 .. 100,0000%00:00 (00:00)Guru GamesGood Shepherd Entertainment
44 Black Mirror I Oct 17, 2003 $9.99N/A (N/A/60%)100,000 .. 200,0000%00:00 (00:00)Future Games, Unknown IdentityTHQ Nordic
45 TARTARUS Nov 21, 2017 $19.99N/A (N/A/59%)0 .. 20,0000%00:00 (00:00)Abyss GameworksAbyss Gameworks
46 The Bunker Sep 20, 2016 $6.23N/A (N/A/57%)50,000 .. 100,0000%00:00 (00:00)Splendy Interactive, Wales InteractiveWales Interactive
47 Soul Axiom Feb 29, 2016 N/AN/A (N/A/57%)50,000 .. 100,0000%00:00 (00:00)Wales InteractiveWales Interactive
48 Bohemian Killing Jul 21, 2016 $12.99N/A (N/A/55%)20,000 .. 50,0000%00:00 (00:00)The MoonwallsLibredia Entertainment
49 Angelo and Deemon: One Hell of a Quest Sep 27, 2019 $11.99N/A (N/A/53%)0 .. 20,000NAN%00:00 (00:00)Specialbit StudioSpecialbit Studio
50 No70: Eye of Basir Jun 28, 2017 $3.99N/A (N/A/52%)0 .. 20,000NAN%00:00 (00:00)Oldmoustache GameworksArtcom FZC
51 Daylight Apr 29, 2014 $4.99N/A (N/A/51%)100,000 .. 200,0000%00:00 (00:00)Zombie StudiosZombie Studios
52 Past Cure Feb 23, 2018 $29.99N/A (N/A/48%)0 .. 20,000NAN%00:00 (00:00)Phantom 8 StudioPhantom 8 Studio
53 Those Who Remain May 28, 2020 $11.99N/A (N/A/48%)100,000 .. 200,0000%00:00 (00:00)Camel 101Wired Productions, WhisperGames
54 The Flock Aug 21, 2015 $16.99N/A (N/A/36%)20,000 .. 50,0000%00:00 (00:00)VogelsapVogelsap
55 Phasmophobia Sep 18, 2020 $13.99N/A (N/A)5,000,000 .. 10,000,00022.67%03:30 (01:49)Kinetic GamesKinetic Games
56 Mortal Decay Oct 28, 2020 $2.99N/A (N/A)0 .. 20,000NAN%00:00 (00:00)Roger KafferRoger Kaffer
57 Superliminal Nov 5, 2020 $19.99N/A (N/A)500,000 .. 1,000,00020%01:01 (00:35)Pillow CastlePillow Castle
58 Ratten Reich - Dance of Kings Oct 26, 2020 FreeN/A (N/A)20,000 .. 50,000NAN%00:00 (00:00)MetalAdlerStudioMetalAdlerStudio
59 DOGMAN Nov 5, 2020 $2.99N/A (N/A)50,000 .. 100,000NAN%00:00 (00:00)Daniel GeorgeDaniel George
60 Iwaihime Oct 23, 2020 $29.99N/A (N/A)0 .. 20,0000%00:00 (00:00)DMM GAMESShiravune
61 Floor 13: Deep State Nov 2, 2020 $19.99N/A (N/A)0 .. 20,000NAN%00:00 (00:00)Oversight ProductionsHumble Games
62 Mask of Sanity Oct 23, 2020 $11.99N/A (N/A)0 .. 20,000NAN%00:00 (00:00)UNICORE Games StudiosUNICORE Games Studios
63 Lurkers Nov 2, 2020 $5.99N/A (N/A)0 .. 20,000NAN%00:00 (00:00)Ertal GamesErtal Games
64 Absinth Oct 23, 2020 $6.29N/A (N/A)0 .. 20,000NAN%00:00 (00:00)blackHound GmbHblackHound GmbH
65 Ghost in the pool Jan 27, 2021 $4.49N/A (N/A)0 .. 20,000NAN%00:00 (00:00)CASCHA GAMESCASCHA GAMES
66 project BLARI Oct 20, 2020 $5.99N/A (N/A)20,000 .. 50,000NAN%00:00 (00:00)MaxEstLaMaxEstLa
67 Today Is My Birthday Oct 30, 2020 $9.99N/A (N/A)0 .. 20,000NAN%00:00 (00:00)Wonder GamesCRYTlVO
68 Siren Head: Awakening Oct 30, 2020 FreeN/A (N/A)0 .. 20,000NAN%00:00 (00:00)Prisma Games L.L.C.Prisma Games L.L.C.
69 Inferno Oct 1, 2020 $6.99N/A (N/A)0 .. 20,000NAN%00:00 (00:00)Aldorlea GamesAldorlea Games
70 Strobophagia | Rave Horror Oct 28, 2020 $19.99N/A (N/A)500,000 .. 1,000,000NAN%00:00 (00:00)Green Tile DigitalGreen Tile Digital
71 Help Oct 13, 2016 $2.99N/A (N/A)20,000 .. 50,0000%00:00 (00:00)Volens Nolens GamesVolens Nolens Games
72 Fumiko! Feb 13, 2017 $6.99N/A (N/A)50,000 .. 100,0000%00:00 (00:00)Fumiko GamesFumiko Games
73 The Butterfly Sign Dec 13, 2016 $4.99N/A (N/A)200,000 .. 500,0000%00:00 (00:00)Quantum Phoenix Studio, Michail Romanov, Bogdan Rozymny, Denis Esie, Artem Lynev, Artur SamoylenkoQuantum Phoenix Studio
74 Coffin of Ashes Dec 8, 2016 $6.99N/A (N/A)20,000 .. 50,000NAN%00:00 (00:00)Ladomu, Angels Blue Digital Entertainment, DigitalEZDigitalEZ
75 Minds Eyes Aug 31, 2016 FreeN/A (N/A)200,000 .. 500,0000%00:00 (00:00)Stanislaw TruchowskiTurnVex
76 Tomato Way Dec 7, 2016 $3.99N/A (N/A)0 .. 20,0000%00:00 (00:00)Vladislav Castillo GonzalezVladislav Castillo Gonzalez
77 The Multidimensional Underwear Drawer Aug 31, 2016 $24.99N/A (N/A)0 .. 20,000NAN%00:00 (00:00)KamiyaSoftBirchTreeGames
78 ARAYA Nov 24, 2016 $14.99N/A (N/A)50,000 .. 100,0000%00:00 (00:00)MAD Virtual Reality StudioMAD Virtual Reality Studio
79 SHINRAI - Broken Beyond Despair Aug 26, 2016 $14.99N/A (N/A)0 .. 20,000NAN%00:00 (00:00)Gosatsu Visual NovelsGosatsu Visual Novels
80 Silhouette: Chapter One Nov 13, 2016 N/AN/A (N/A)0 .. 20,000NAN%00:00 (00:00)Apeirogon GamesApeirogon Games
81 The Survey Oct 27, 2016 $4.99N/A (N/A)0 .. 20,000NAN%00:00 (00:00)Robert GammonRobert Gammon
82 The Lighthouse Oct 31, 2019 $24.99N/A (N/A)20,000 .. 50,000NAN%00:00 (00:00)Shadow Knights StudioShadow Knights Studio
83 腾起之蛇 Oct 9, 2019 $7.99N/A (N/A)0 .. 20,000NAN%00:00 (00:00)炎帝归乡炎帝归乡
84 Lightmare Castle Nov 1, 2019 $7.99N/A (N/A)0 .. 20,000NAN%00:00 (00:00)Funderground GamesFunderground Games
85 Immanence Jan 22, 2020 FreeN/A (N/A)0 .. 20,000NAN%00:00 (00:00)Cat In A Jar GamesCat In A Jar Games
86 PAGAN PEAK VR Oct 30, 2019 $9.99N/A (N/A)0 .. 20,000NAN%00:00 (00:00)anotherworld GmbHanotherworld GmbH
87 港詭實錄ParanormalHK Jan 6, 2020 $12.99N/A (N/A)200,000 .. 500,0007.14%01:36 (00:32)Ghostpie StudioGhostpie Studio, Gamera Game
88 Dark Zone Defense Oct 29, 2019 $1.99N/A (N/A)20,000 .. 50,000NAN%00:00 (00:00)SupernatureSupernature
89 Em-A-Li Jan 2, 2020 $1.99N/A (N/A)0 .. 20,000NAN%00:00 (00:00)YobobY.B.
90 Meridian 157: Chapter 1 Oct 30, 2019 $2.99N/A (N/A)0 .. 20,000NAN%00:00 (00:00)NovaSoft Interactive Ltd.NovaSoft Interactive Ltd.
91 The Land of Crows Dec 23, 2019 FreeN/A (N/A)0 .. 20,000NAN%00:00 (00:00)GemloreGemlore
92 Interactive Horror Stories Oct 25, 2019 FreeN/A (N/A)20,000 .. 50,000NAN%00:00 (00:00)Aslan Game StudioAslan Game Studio
93 Twin Peaks VR Dec 12, 2019 $9.99N/A (N/A)0 .. 20,000NAN%00:00 (00:00)Collider GamesShowtime, Collider Games
94 Secret Neighbor: Hello Neighbor Multiplayer Oct 24, 2019 $19.99N/A (N/A)200,000 .. 500,0005.56%01:06 (00:22)Hologryph, Eerie Guest StudiostinyBuild
95 Devil Threats Dec 12, 2019 $4.99N/A (N/A)0 .. 20,000NAN%00:00 (00:00)Gokhan ARAGULUGokhan ARAGULU
96 Suite 776 Dec 6, 2019 $3.99N/A (N/A)0 .. 20,000NAN%00:00 (00:00)Stanislaw TruchowskiTurnVex
97 Hello Neighbor Alpha 2 Oct 15, 2019 FreeN/A (N/A)50,000 .. 100,0000%00:00 (00:00)Dynamic PixelstinyBuild
98 Don't Look Aug 7, 2020 $1.99N/A (N/A)0 .. 20,000NAN%00:00 (00:00)Diego AguilarDiego Aguilar
99 黑色花与红山羊 / Black Datura & Red Goat Aug 20, 2020 $7.99N/A (N/A)0 .. 20,000NAN%00:00 (00:00)Angels Blue Digital Entertainment, LadomuGamera Game
100 Tomato Way 3 Sep 15, 2020 $14.99N/A (N/A)0 .. 20,000NAN%00:00 (00:00)Vladislav Castillo GonzalezVladislav Castillo Gonzalez
101 MBHL20 Aug 20, 2020 $4.99N/A (N/A)0 .. 20,000NAN%00:00 (00:00)Halt StudiosHalt Studios
102 Sleep Sep 8, 2020 $2.99N/A (N/A)0 .. 20,000NAN%00:00 (00:00)Black appleBlack apple
103 Dread X Collection 2 Aug 21, 2020 $9.99N/A (N/A)0 .. 20,0000%00:00 (00:00)David Szymanski, Torple Dook, Lovely Hellplace, Scythe Dev Team, Mahelyk, Secret Cow Level, panstasz, Bathysfear Labs, Daniel Mullins Games, Wither Studios, Akabaka, Vidas Salavejus, Wayward Preacher, John SzymanskiDread XP
104 Midnight Scenes Episode 2 (Special Edition) Sep 8, 2020 $3.59N/A (N/A)20,000 .. 50,000NAN%00:00 (00:00)Octavi NavarroOctavi Navarro
105 DEDstress Aug 20, 2020 $9.99N/A (N/A)0 .. 20,000NAN%00:00 (00:00)3StrakGames3StrakGames
106 EscapeVr Sep 1, 2020 $14.99N/A (N/A)20,000 .. 50,000NAN%00:00 (00:00)Fence-InFence-In
107 Dream Of Salmon Aug 15, 2020 $1.99N/A (N/A)0 .. 20,000NAN%00:00 (00:00)D.VirusD.Virus
108 Greyhat - A Digital Detective Adventure Aug 31, 2020 $11.99N/A (N/A)0 .. 20,000NAN%00:00 (00:00)Limited GamesLimited Games
109 Gurobu Aug 14, 2020 $1.99N/A (N/A)20,000 .. 50,000NAN%00:00 (00:00)Aiaz MarxAiaz Marx
110 MOTHER Aug 27, 2020 $2.99N/A (N/A)0 .. 20,000NAN%00:00 (00:00)Irwin SegaraneIrwin Segarane
111 Manipulate: Sacrifice Aug 12, 2020 $6.99N/A (N/A)0 .. 20,000NAN%00:00 (00:00)MELPYAMELPYA
112 Jessika Aug 25, 2020 $7.49N/A (N/A)0 .. 20,000NAN%00:00 (00:00)Tritrie GamesAssemble Entertainment
113 A Night In Berlin Aug 7, 2020 FreeN/A (N/A)50,000 .. 100,000NAN%00:00 (00:00)Unlimina SoftwareBad Smile Media
114 PANIC STATION Aug 25, 2020 $1.99N/A (N/A)0 .. 20,000NAN%00:00 (00:00)Forest GamesForest Games
115 A Date in the Park Nov 14, 2014 FreeN/A (N/A)0 .. 20,0000%00:00 (00:00)Cloak and Dagger GamesCloak and Dagger Games
116 Asemblance Jun 21, 2016 $7.99N/A (N/A)0 .. 20,000NAN%00:00 (00:00)Nilo StudiosNilo Studios
117 Nevermind Sep 29, 2015 $19.99N/A (N/A)50,000 .. 100,0000%00:00 (00:00)Flying MolluskFlying Mollusk
118 Nyctophilia Sep 23, 2015 FreeN/A (N/A)100,000 .. 200,0000%00:00 (00:00)Cat In A Jar GamesCat In A Jar Games
119 Root Double -Before Crime * After Days- Xtend Edition Apr 27, 2016 $34.99N/A (N/A)20,000 .. 50,0000%00:00 (00:00)Yeti, RegistaSekai Project
120 Knee Deep Jul 6, 2015 $19.99N/A (N/A)0 .. 20,000NAN%00:00 (00:00)Prologue GamesPrologue Games
121 Notch - The Innocent LunA: Eclipsed SinnerS Feb 18, 2012 $9.99N/A (N/A)50,000 .. 100,000NAN%00:00 (00:00)Angels Blue Digital Entertainment, DigitalEZDigitalEZ
122 G-senjou no Maou - The Devil on G-String Nov 5, 2015 $19.99N/A (N/A)0 .. 20,0000%00:00 (00:00)AKABEiSOFT2Sekai Project
123 Mirrored - Chapter 1 Oct 30, 2015 $0.99N/A (N/A)20,000 .. 50,000NAN%00:00 (00:00)Kelkafa Studios, Cardboard Sword Limited, Jet Stone StudiosKelkafa Studios
124 Ellen Feb 15, 2019 $9.99N/A (N/A)0 .. 20,000NAN%00:00 (00:00)Red Mount Media, AntarsoftRed Mount Media
125 Kid,napper: Gosh, I'm Kidnapped by a Pupil Jun 1, 2017 FreeN/A (N/A)200,000 .. 500,0000%00:00 (00:00)CatnipCatnip
126 Your Future Self Mar 8, 2019 $2.99N/A (N/A)0 .. 20,000NAN%00:00 (00:00)Contortionist GamesContortionist Games
127 Don't Die Aug 8, 2019 $9.99N/A (N/A)0 .. 20,000NAN%00:00 (00:00)Zgame StudioZgame Studio
128 The Terrible Old Man Oct 10, 2019 FreeN/A (N/A)50,000 .. 100,000NAN%00:00 (00:00)Cloak and Dagger GamesCloak and Dagger Games
129 CHAOS;CHILD Jan 22, 2019 $34.99N/A (N/A)20,000 .. 50,00020%00:01 (00:00)MAGES. Inc.Spike Chunsoft Co., Ltd.
130 Dry Drowning Aug 2, 2019 $9.99N/A (N/A)20,000 .. 50,0000%00:00 (00:00)Studio V, VLGVLG Publishing, WhisperGames
131 Forgiveness : Escape Room Feb 28, 2019 $9.99N/A (N/A)0 .. 20,000NAN%00:00 (00:00)Chaos MindsChaos Minds
132 Worse Than Death Oct 8, 2019 $9.99N/A (N/A)0 .. 20,000NAN%00:00 (00:00)Benjamin Rivers Inc.Benjamin Rivers Inc.
133 Play With Me: Escape room Jan 17, 2019 $2.99N/A (N/A)20,000 .. 50,0000%00:00 (00:00)AiremAirem
134 Don't Escape Trilogy Jul 29, 2019 $4.99N/A (N/A)0 .. 20,000NAN%00:00 (00:00)scriptwelderArmor Games Studios
135 Wounded - The Beginning Feb 28, 2019 $6.99N/A (N/A)0 .. 20,000NAN%00:00 (00:00)Workbench EntertainmentWorkbench Entertainment
136 Eldritch Academy Mar 21, 2019 $11.99N/A (N/A)0 .. 20,000NAN%00:00 (00:00)NightshadeNightshade
137 She Sees Red - Interactive Movie Jul 11, 2019 $7.99N/A (N/A)100,000 .. 200,00033.33%01:32 (00:46)RhinotalesRhinotales
138 Cartonfall Feb 27, 2019 $7.99N/A (N/A)0 .. 20,000NAN%00:00 (00:00)kuklam studioskuklam studios
139 NAVALNY: A Nightmare of Corrupt Sep 27, 2019 $5.99N/A (N/A)0 .. 20,000NAN%00:00 (00:00)LightCAT gamingLightCAT gaming
140 Deathdays End Dec 26, 2018 $0.99N/A (N/A)0 .. 20,000NAN%00:00 (00:00)Anonymous GamesAnonymous Games
141 Them Bombs Jul 10, 2019 $10.99N/A (N/A)0 .. 20,000NAN%00:00 (00:00)Yellow DotYellow Dot
142 The Cursed Forest Feb 26, 2019 $13.99N/A (N/A)0 .. 20,000NAN%00:00 (00:00)KPy3O, NoostycheNoostyche, Pleasant Rain Ltd
143 Showdown Bandit Sep 17, 2019 N/AN/A (N/A)50,000 .. 100,0000%00:00 (00:00)Kindly BeastKindly Beast
144 The Subject Nov 30, 2018 $7.99N/A (N/A)20,000 .. 50,000NAN%00:00 (00:00)DarkStone DigitalDarkStone Digital
145 Fear in Hospital Jul 3, 2019 FreeN/A (N/A)100,000 .. 200,000NAN%00:00 (00:00)IO GamesIO Games
146 Pacify Feb 22, 2019 $4.99N/A (N/A)1,000,000 .. 2,000,0004.88%00:22 (00:29)Shawn HitchcockHitchcock Games
147 Okaeri Sep 6, 2019 $2.99N/A (N/A)0 .. 20,0000%00:00 (00:00)Chilla's ArtChilla's Art
148 Legends of Koyannis Nov 15, 2018 $0.99N/A (N/A)0 .. 20,000NAN%00:00 (00:00)Koyannis GamesKoyannis Games
149 Meridian 157: Prologue Jun 30, 2019 FreeN/A (N/A)0 .. 20,000NAN%00:00 (00:00)NovaSoft Interactive Ltd.NovaSoft Interactive Ltd.
150 STEINS;GATE ELITE Feb 19, 2019 $59.99N/A (N/A)0 .. 20,0000%00:00 (00:00)MAGES. Inc.Spike Chunsoft Co., Ltd.
151 Lighthouse of guiding flames Aug 28, 2019 $4.99N/A (N/A)0 .. 20,000NAN%00:00 (00:00)TomoToroNARRATIVE NINE LTD
152 Viviette Oct 18, 2018 $9.99N/A (N/A)0 .. 20,0000%00:00 (00:00)DYA GamesDYA Games
153 Humans V Zombies Jul 29, 2020 FreeN/A (N/A)0 .. 20,000NAN%00:00 (00:00)Pasha Utt, Jong Jiang KwangEgg Splat Studios
154 离校日 The School Leaving Day Jul 16, 2020 $7.99N/A (N/A)0 .. 20,000NAN%00:00 (00:00)Dracul AurionAurion Entertainment
155 InMaze Jul 28, 2020 $1.64N/A (N/A)0 .. 20,000NAN%00:00 (00:00)Vít VohralíkAppVator Interactive
156 Dark Tales: Edgar Allan Poe's The Devil in the Belfry Collector's Edition Aug 7, 2020 $13.99N/A (N/A)0 .. 20,000NAN%00:00 (00:00)AMAX InteractiveBig Fish Games
157 Synergia Jul 27, 2020 $11.99N/A (N/A)0 .. 20,0000%00:00 (00:00)Radi ArtTop Hat Studios Inc
158 Wait! Life is Beautiful! Prologue Aug 6, 2020 FreeN/A (N/A)0 .. 20,000NAN%00:00 (00:00)[DRAMATIC MUSIC PLAYS]GameNet
159 The Soldiers Factory Jul 26, 2020 $17.99N/A (N/A)20,000 .. 50,000NAN%00:00 (00:00)Bommi ProduktionBommi Produktion
160 Eyes of The Mirror Aug 6, 2020 FreeN/A (N/A)0 .. 20,000NAN%00:00 (00:00)Fatih MertFatih Mert
161 There Was the Moon Jul 24, 2020 $9.99N/A (N/A)0 .. 20,000NAN%00:00 (00:00)Ben LapidBunso
162 Corridors of their memories Aug 3, 2020 $2.99N/A (N/A)0 .. 20,000NAN%00:00 (00:00)AlkinoyAlkinoy
163 Terrordrome - Reign of the Legends Jul 23, 2020 $14.99N/A (N/A)0 .. 20,000NAN%00:00 (00:00)Huracan StudioHuracan Studio
164 Zango's Shark Adventure Jul 31, 2020 $4.99N/A (N/A)0 .. 20,000NAN%00:00 (00:00)ReflectiveByteReflectiveByte
165 White Wings ホワイトウィングス Jul 17, 2020 $19.99N/A (N/A)0 .. 20,0000%00:00 (00:00)Pureworks Japan 株式会社Pureworks Japan 株式会社
166 Lockheart Indigo Jul 31, 2020 FreeN/A (N/A)0 .. 20,000NAN%00:00 (00:00)HarmlessHarmless
167 Family Mysteries 3: Criminal Mindset Jul 16, 2020 $14.99N/A (N/A)0 .. 20,000NAN%00:00 (00:00)Brave Giant LTDArtifex Mundi
168 My Silly Life Jul 29, 2020 $0.99N/A (N/A)0 .. 20,000NAN%00:00 (00:00)storkyproduct.storkyproduct.
169 Commander '85 Prologue Jul 16, 2020 FreeN/A (N/A)0 .. 20,000NAN%00:00 (00:00)The MoonwallsUltimate Games S.A.
170 WORLD END ECONOMiCA episode.01 May 5, 2014 $12.99N/A (N/A)50,000 .. 100,0000%00:00 (00:00)Spicy TailsSekai Project
171 Lifeless Planet Premier Edition Jun 6, 2014 $19.99N/A (N/A)200,000 .. 500,0000%00:00 (00:00)Stage 2 StudiosSerenity Forge
172 Nicole Oct 17, 2013 $18.99N/A (N/A)0 .. 20,000NAN%00:00 (00:00)Winter WolvesWinter Wolves
173 Cognition: An Erica Reed Thriller Sep 19, 2013 $14.99N/A (N/A)100,000 .. 200,0000%00:00 (00:00)Phoenix Online StudiosPhoenix Online Publishing
174 The 39 Steps Apr 25, 2013 $4.99N/A (N/A)200,000 .. 500,0000%00:00 (00:00)The Story MechanicsThe Secret Experiment
175 Mechanism Jul 19, 2018 $12.99N/A (N/A)0 .. 20,0000%00:00 (00:00)Alexander GoodwinAlexander Goodwin
176 Hang Up Oct 16, 2018 FreeN/A (N/A)0 .. 20,000NAN%00:00 (00:00)Shadow FactoryShadow Factory
177 Stifled - Echolocation Horror Mystery Jul 10, 2018 $19.99N/A (N/A)0 .. 20,000NAN%00:00 (00:00)Gattai GamesGattai Games
178 The Poisoner (Prelude) Oct 10, 2018 $0.99N/A (N/A)0 .. 20,000NAN%00:00 (00:00)PlatformaVRPlatformaVR
179 Tomato Way 2 Jul 10, 2018 $8.99N/A (N/A)0 .. 20,000NAN%00:00 (00:00)Vladislav Castillo GonzalezVladislav Castillo Gonzalez
180 The Works of Mercy Sep 26, 2018 $14.99N/A (N/A)0 .. 20,000NAN%00:00 (00:00)PeηtacleUltimate Games S.A.
181 灵魂筹码 Soul at Stake Jun 25, 2018 $17.99N/A (N/A)200,000 .. 500,0000%00:00 (00:00)Chongming StudioChongming Studio
182 Yokai Mask Sep 20, 2018 $1.99N/A (N/A)0 .. 20,000NAN%00:00 (00:00)CATECATE
183 Vein Hotel Jun 16, 2018 $3.99N/A (N/A)0 .. 20,000NAN%00:00 (00:00)阿屁PP314阿屁PP314
184 Silence in Space - Season One Sep 4, 2018 $1.99N/A (N/A)50,000 .. 100,000NAN%00:00 (00:00)Gisa FerreiraGlitch Pixel
185 Fading Visage May 29, 2018 $3.99N/A (N/A)0 .. 20,000NAN%00:00 (00:00)Simulators GearSimulators Gear
186 Drawn Down Aug 31, 2018 $2.99N/A (N/A)0 .. 20,000NAN%00:00 (00:00)Studio HazyStudio Hazy
187 Drizzlepath: Deja Vu May 25, 2018 $1.99N/A (N/A)0 .. 20,0000%00:00 (00:00)Tonguç BodurTonguç Bodur
188 Seul (Alone): The entrée Aug 31, 2018 $2.99N/A (N/A)0 .. 20,000NAN%00:00 (00:00)Paranormal GamesParanormal Games
189 STAY May 16, 2018 $11.99N/A (N/A)20,000 .. 50,0000%00:00 (00:00)Appnormals TeamPQube Limited
190 The Swine Jun 18, 2020 $1.99N/A (N/A)0 .. 20,000NAN%00:00 (00:00)Vincent LadeVincent Lade
191 Human Origin Jun 10, 2020 $1.99N/A (N/A)0 .. 20,000NAN%00:00 (00:00)AmyBerylAmyBeryl
192 EDGE OF DAWN Jul 17, 2020 $14.99N/A (N/A)0 .. 20,000NAN%00:00 (00:00)Western WerksWestern Werks
193 Dark Room Jul 15, 2020 $2.99N/A (N/A)0 .. 20,000NAN%00:00 (00:00)Lexip GamesLexip Games
194 Interrogation Files: Port Landsend Jun 18, 2020 $8.99N/A (N/A)0 .. 20,000NAN%00:00 (00:00)Visual InteractiveVisual Interactive
195 DR MILOS REVENGE Jul 10, 2020 $1.99N/A (N/A)0 .. 20,000NAN%00:00 (00:00)GameDevMootGameDevMoot
196 Our Secret Below Jul 10, 2020 $14.99N/A (N/A)0 .. 20,000NAN%00:00 (00:00)DarkStone DigitalDarkStone Digital
197 Demonic Blade Jun 17, 2020 $9.99N/A (N/A)0 .. 20,000NAN%00:00 (00:00)Mikołaj SpychałMikołaj Spychał
198 The Peresmeshnik Jul 7, 2020 FreeN/A (N/A)0 .. 20,000NAN%00:00 (00:00)Sean ArnoldSean Arnold
199 Saint Kotar: The Yellow Mask Jun 17, 2020 FreeN/A (N/A)20,000 .. 50,000NAN%00:00 (00:00)Red Martyr EntertainmentRed Martyr Entertainment
200 Swallow The Blue Jul 8, 2020 N/AN/A (N/A)0 .. 20,000NAN%00:00 (00:00)Euphoric BrothersEuphoric Brothers
201 Haunted Hotel: Lost Time Collector's Edition Jun 19, 2020 $9.99N/A (N/A)0 .. 20,000NAN%00:00 (00:00)Elephant GamesBig Fish Games
202 Eldritch University Jun 11, 2020 $5.99N/A (N/A)0 .. 20,000NAN%00:00 (00:00)NightshadeNightshade
203 Orange Cast: Prologue Dec 24, 2020 FreeN/A (N/A)100,000 .. 200,000NAN%00:00 (00:00)Team RezValkyrie Initiative
204 Race To Sanity Jan 15, 2021 $0.99N/A (N/A)0 .. 20,000NAN%00:00 (00:00)Sinned GamesSinned Games
205 Sanitarium Apr 30, 1998 $9.99N/A (N/A)100,000 .. 200,0000%00:00 (00:00)Dotemu, DreamForge IntertainmentDotemu
206 MADE : Interactive Movie – 01. Run away! Jan 12, 2021 $14.99N/A (N/A)0 .. 20,000NAN%00:00 (00:00)JOONSPICTURESJOONSPICTURES
207 Return of the Phantom Aug 7, 2020 $6.99N/A (N/A)50,000 .. 100,000NAN%00:00 (00:00)MPS LabsZiggurat
208 Lost Brothers Jan 12, 2021 $8.99N/A (N/A)0 .. 20,000NAN%00:00 (00:00)BitLightBitLight
209 VR Girls’ Room in Darkness Jan 26, 2021 $2.99N/A (N/A)0 .. 20,000NAN%00:00 (00:00)William at OxfordWilliam at Oxford
210 Under Lock Jan 12, 2021 $9.99N/A (N/A)0 .. 20,000NAN%00:00 (00:00)ShakitumShakitum
211 Security Guy vs AI: The Dawn of AI Jan 24, 2021 FreeN/A (N/A)0 .. 20,000NAN%00:00 (00:00)Alexander Bogdanov, Alexandrina Svitsyna Alexander Bogdanov
212 Francisca 2 Jan 7, 2021 $0.99N/A (N/A)0 .. 20,000NAN%00:00 (00:00)Biscuit PlayBiscuit Play
213 Monstrum 2 Beta Jan 22, 2021 N/AN/A (N/A)200,000 .. 500,000NAN%00:00 (00:00)Team JunkfishJunkfish Limited
214 The Sentinel (Old Version) Dec 31, 2020 N/AN/A (N/A)0 .. 20,000NAN%00:00 (00:00)Studio SkeletonAquila Studios
215 Fragments Jan 20, 2021 $2.69N/A (N/A)20,000 .. 50,000NAN%00:00 (00:00)codapillcodapill
216 Freaky Clown : Town Mystery Dec 27, 2020 FreeN/A (N/A)0 .. 20,000NAN%00:00 (00:00)Z & K GamesZ & K Games
217 Misery Mansion Jan 19, 2021 $17.99N/A (N/A)0 .. 20,000NAN%00:00 (00:00)Manic MiceManic Mice
218 CRYPTIC Dec 25, 2020 $2.99N/A (N/A)0 .. 20,000NAN%00:00 (00:00)Shoho GamesShoho Games
219 戾谈 Jan 16, 2021 $9.99N/A (N/A)100,000 .. 200,000NAN%00:00 (00:00)SPG MistarilleSPG Mistarille
220 Keys Feb 2, 2018 $0.99N/A (N/A)0 .. 20,000NAN%00:00 (00:00)Bloody Forehead EntertainmentBloody Forehead Entertainment
221 LOVE Obsession May 6, 2018 $11.99N/A (N/A)0 .. 20,000NAN%00:00 (00:00)MegatonMegaton
222 Please close the doors Jan 29, 2018 $4.99N/A (N/A)50,000 .. 100,0000%00:00 (00:00)Koyotis StudioКиКо
223 My Safe House Apr 20, 2018 $1.99N/A (N/A)0 .. 20,000NAN%00:00 (00:00)StoryTale StudiosStoryTale Studios
224 Dead Link: Pages Torn Nov 17, 2017 $2.99N/A (N/A)0 .. 20,000NAN%00:00 (00:00)phime studio LLCphime studio LLC
225 Golfing Over It with Alva Majo Mar 28, 2018 $4.99N/A (N/A)50,000 .. 100,0000%00:00 (00:00)MajorariattoMajorariatto
226 Deadstep Mar 9, 2018 $4.99N/A (N/A)0 .. 20,000NAN%00:00 (00:00)Sangwoon JinFLUXJIN
227 The Ghosts of Hackney Mills Nov 20, 2017 $1.99N/A (N/A)20,000 .. 50,000NAN%00:00 (00:00)Sapphire Dragon ProductionsSapphire Dragon Productions
228 Sorry, James Nov 10, 2017 $2.49N/A (N/A)20,000 .. 50,0000%00:00 (00:00)KonstructorsHook Games, GrabTheGames, WhisperGames
229 Tren0 Feb 22, 2018 $2.99N/A (N/A)50,000 .. 100,0000%00:00 (00:00)BubbleINDIECN
230 SIMULACRA Oct 26, 2017 $4.99N/A (N/A)100,000 .. 200,0000%00:00 (00:00)Kaigan Games OÜKaigan Games OÜ, Another Indie
231 Football Game Feb 13, 2018 $0.99N/A (N/A)0 .. 20,000NAN%00:00 (00:00)Cloak and Dagger GamesCloak and Dagger Games
232 初颜 - The Prototype Feb 6, 2018 $11.99N/A (N/A)0 .. 20,000NAN%00:00 (00:00)发胶事务所 Hairgel Agency发胶事务所 Hairgel Agency
233 The Painscreek Killings Sep 27, 2017 $7.99N/A (N/A)20,000 .. 50,0000%00:00 (00:00)EQ StudiosEQ Studios
234 Ghost of Tomorrow May 25, 2020 $3.99N/A (N/A)0 .. 20,000NAN%00:00 (00:00)Ed LioniEd Lioni
235 HopBound Jun 9, 2020 $1.99N/A (N/A)0 .. 20,000NAN%00:00 (00:00)Darius Immanuel D. GuerreroAppSir, Inc.
236 Hedera May 21, 2020 $2.99N/A (N/A)0 .. 20,000NAN%00:00 (00:00)Aiaz MarxAiaz Marx
237 The Hand of Glory Jun 9, 2020 $18.99N/A (N/A)0 .. 20,000NAN%00:00 (00:00)Madit Entertainment, Daring TouchMadit Entertainment, Daring Touch
238 Night Spasm May 15, 2020 $9.99N/A (N/A)0 .. 20,000NAN%00:00 (00:00)Gideon MoesGideon Moes
239 A Hand With Many Fingers Jun 9, 2020 $4.99N/A (N/A)0 .. 20,000NAN%00:00 (00:00)ColestiaColestia
240 Hidden Jul 13, 2020 $0.99N/A (N/A)0 .. 20,000NAN%00:00 (00:00)OlscOlsc
241 My Hidden Things Jun 4, 2020 $8.99N/A (N/A)0 .. 20,000NAN%00:00 (00:00)Six DotsSix Dots
242 Apoc Runner May 31, 2020 FreeN/A (N/A)0 .. 20,000NAN%00:00 (00:00)Omnitron StudiosOmnitron Studios
243 Cat in the Box May 1, 2020 $6.99N/A (N/A)0 .. 20,000NAN%00:00 (00:00)GustavPsychoFlux Entertainment
244 Meridian 157: Chapter 2 May 30, 2020 $2.99N/A (N/A)0 .. 20,000NAN%00:00 (00:00)NovaSoft Interactive Ltd.NovaSoft Interactive Ltd.
245 노베나 디아볼로스 Apr 26, 2020 $18.99N/A (N/A)20,000 .. 50,000100%06:35 (06:35)H5DEV GamesH5DEV Games
246 Locked Up Apr 23, 2020 $4.54N/A (N/A)0 .. 20,000NAN%00:00 (00:00)EMIKA_GAMESEMIKA_GAMES
247 Damned Hand Nov 6, 2020 $5.99N/A (N/A)0 .. 20,000NAN%00:00 (00:00)ApplykatApplykat
248 Overslept Nov 22, 2020 $1.99N/A (N/A)0 .. 20,000NAN%00:00 (00:00)Justus YewJarze Games
249 Hand Simulator: Horror Dec 22, 2020 $2.99N/A (N/A)50,000 .. 100,00050%02:29 (02:29)HFM GamesHFM Games
250 LUNA Nov 20, 2020 $0.99N/A (N/A)0 .. 20,000NAN%00:00 (00:00)SimplePsychoFlux Entertainment
251 Hello Guest: Hello Neighbor 2 pre-alpha Dec 22, 2020 FreeN/A (N/A)0 .. 20,000NAN%00:00 (00:00)Eerie Guest, tinyBuildtinyBuild
252 The Dark Method Nov 19, 2020 $24.99N/A (N/A)0 .. 20,000NAN%00:00 (00:00)Analog Joker LLCAnalog Joker LLC
253 Don't Be Afraid Dec 17, 2020 $13.99N/A (N/A)0 .. 20,000NAN%00:00 (00:00)Hydra Games S.A., Limo Games, Broken Arrow GamesHydra Games S.A.
254 S H R i M P Nov 16, 2020 $6.99N/A (N/A)20,000 .. 50,000NAN%00:00 (00:00)Seniattus StudiosSeniattus Studios
255 World War Academy: COMMANDER 1 Dec 10, 2020 $24.99N/A (N/A)0 .. 20,000NAN%00:00 (00:00)Xu MipingXu Miping
256 XIBALBA Nov 13, 2020 $7.99N/A (N/A)0 .. 20,000NAN%00:00 (00:00)Reef SoftwareReef Software
257 ALLBLACK Phase 1 Dec 5, 2020 FreeN/A (N/A)0 .. 20,000NAN%00:00 (00:00)NSAIDNSAID
258 B.D.K Nov 13, 2020 $4.99N/A (N/A)0 .. 20,000NAN%00:00 (00:00)EDOEDO
259 Control Over Dec 2, 2020 $8.99N/A (N/A)0 .. 20,000NAN%00:00 (00:00)AshcraftAshcraft
260 Krakatoa Nov 11, 2020 $4.99N/A (N/A)50,000 .. 100,000NAN%00:00 (00:00)Splint GamesSplint Games
261 Corridor: Amount of Fear Nov 24, 2020 $3.99N/A (N/A)0 .. 20,000NAN%00:00 (00:00)Unreal Quality GamesRosa Special Studio
262 Cover Your Eyes Nov 6, 2020 $9.99N/A (N/A)0 .. 20,000NAN%00:00 (00:00)StarSkippStarSkipp
263 Pleiades - A Subversion Saga Game Nov 22, 2020 $7.99N/A (N/A)20,000 .. 50,000NAN%00:00 (00:00)Joshua Linscott, 1122 IndustriesJoshua Linscott, 1122 Industries
264 The Falconers: Moonlight Apr 18, 2017 $9.99N/A (N/A)0 .. 20,000NAN%00:00 (00:00)Bionic PenguinSekai Project
265 TAURONOS Aug 4, 2017 $4.99N/A (N/A)20,000 .. 50,000NAN%00:00 (00:00)cavalie_ro, S.C. 16 BIT NIGHTS S.R.L.S.C. 16 BIT NIGHTS S.R.L.
266 Kio's Adventure Apr 7, 2017 $1.99N/A (N/A)200,000 .. 500,0000%00:00 (00:00)Spacelight StudioSpacelight Studio
267 The Morgue Fissure Between Worlds Mar 31, 2017 $0.99N/A (N/A)0 .. 20,000NAN%00:00 (00:00)Zoltok'sN/A
268 Please Jun 24, 2017 $2.99N/A (N/A)0 .. 20,000NAN%00:00 (00:00)Mute CanaryMute Canary
269 Shadows Peak Mar 13, 2017 $9.99N/A (N/A)20,000 .. 50,0000%00:00 (00:00)Andrii VintsevychAndrii Vintsevych
270 Oats Studios - Volume 1 Assets Jun 14, 2017 FreeN/A (N/A)0 .. 20,0000%00:00 (00:00)Oats StudiosOats Studios
271 A Girls Fabric Face Mar 10, 2017 $2.99N/A (N/A)0 .. 20,0000%00:00 (00:00)Stanislaw TruchowskiTurnVex
272 Phantasma VR Jun 12, 2017 $9.99N/A (N/A)0 .. 20,000NAN%00:00 (00:00)The Shady GentlemenThe Shady Gentlemen
273 Darkarta: A Broken Heart's Quest Collector's Edition Mar 8, 2017 $9.99N/A (N/A)0 .. 20,0000%00:00 (00:00)Tuttifrutti InteractiveTuttifrutti Interactive
274 Among the Innocent: A Stricken Tale Feb 14, 2017 $2.99N/A (N/A)0 .. 20,0000%00:00 (00:00)Zero Degrees GamesZero Degrees Games
275 Inside The Mirror Apr 27, 2020 $2.99N/A (N/A)0 .. 20,000NAN%00:00 (00:00)Stairs ProductionsStairs Productions
276 Don't Escape: 4 Days to Survive Mar 11, 2019 $14.99N/A (N/A)50,000 .. 100,0000%00:00 (00:00)scriptwelderArmor Games Studios
277 Somewhere: Sect of Relic May 4, 2020 $0.99N/A (N/A)0 .. 20,000NAN%00:00 (00:00)Junla Games StudiosJunla Games
278 夕鬼 零 Yuoni: Rises Apr 30, 2019 $11.99N/A (N/A)0 .. 20,000NAN%00:00 (00:00)Tricore Inc.Tricore Inc.
279 Em-A-Zurvival Apr 7, 2020 $3.99N/A (N/A)20,000 .. 50,000NAN%00:00 (00:00)YobobY.B.
280 7 Lives Jun 20, 2019 $0.99N/A (N/A)0 .. 20,000NAN%00:00 (00:00)jota-gilTbardo Games
281 The Flower Collectors Apr 21, 2020 $19.99N/A (N/A)0 .. 20,000NAN%00:00 (00:00)Mi'pu'mi Games GmbHMi'pu'mi Games GmbH
282 Diacrisis Apr 26, 2019 $9.99N/A (N/A)0 .. 20,000NAN%00:00 (00:00)Luan Prates de SouzaLuan Prates de Souza
283 Moonlight Mansion Mar 16, 2020 FreeN/A (N/A)0 .. 20,000NAN%00:00 (00:00)Monocarpic GameCNM
284 HomeWork Is Crazy / 作业疯了 Jun 13, 2019 $7.99N/A (N/A)200,000 .. 500,0000%00:00 (00:00)三脚猫Gamera Game
285 No one lives under the lighthouse Apr 21, 2020 $4.99N/A (N/A)0 .. 20,0000%00:00 (00:00)Sowoke Entertainment BureauSowoke Entertainment Bureau
286 Truth: Disorder III — Gemini / 真実:障害III - 双子座 Apr 24, 2019 $2.79N/A (N/A)0 .. 20,000NAN%00:00 (00:00)ReallySJustE Publishing
287 Return to Shironagasu Island Mar 2, 2020 $4.99N/A (N/A)0 .. 20,0000%00:00 (00:00)HYOGO ONIMUSHITABINOMICHI
288 Scenner Jun 11, 2019 $6.29N/A (N/A)0 .. 20,000NAN%00:00 (00:00)mexicozmexicoz
289 A Siren's Call Apr 26, 2020 $4.99N/A (N/A)20,000 .. 50,000NAN%00:00 (00:00)Slade EntertainmentSlade Entertainment
290 祭品的逆襲 The Counterattack Of Sacrifice Apr 21, 2019 $3.99N/A (N/A)0 .. 20,000NAN%00:00 (00:00)Dai Yong Xiang (alex94i60)獨立製作
291 Smile Feb 27, 2020 $5.99N/A (N/A)0 .. 20,000NAN%00:00 (00:00)Ecco StudiosEcco Studios
292 Hello Neighbor Alpha 1 Oct 12, 2019 FreeN/A (N/A)50,000 .. 100,0000%00:00 (00:00)Dynamic PixelstinyBuild
293 My Hole is a Mouth of Dirt Apr 13, 2020 FreeN/A (N/A)0 .. 20,000NAN%00:00 (00:00)Yai GameworksYai Gameworks
294 Paper Dolls: Original / 纸人 Apr 19, 2019 $16.99N/A (N/A)100,000 .. 200,0000%00:00 (00:00)Beijing Litchi Culture Media Co., Ltd.Gamera Game, Beijing Litchi Culture Media Co., Ltd.
295 The Suicide of Rachel Foster Feb 19, 2020 $17.99N/A (N/A)50,000 .. 100,0005.88%03:13 (01:04)ONE-O-ONE GAMESDaedalic Entertainment
296 Hello Neighbor Pre-Alpha Oct 10, 2019 FreeN/A (N/A)50,000 .. 100,0000%00:00 (00:00)Dynamic PixelstinyBuild
297 We Went Back Apr 3, 2020 FreeN/A (N/A)100,000 .. 200,000NAN%00:00 (00:00)Dead Thread GamesDead Thread Games
298 Save Koch Apr 18, 2019 $11.99N/A (N/A)0 .. 20,000NAN%00:00 (00:00)Wooden MonkeysBigGame Publishing
299 Desert of Doitjma Feb 8, 2020 $0.99N/A (N/A)0 .. 20,000NAN%00:00 (00:00)ConmtrastConmtrast
300 Siberian Run VR May 16, 2019 $4.99N/A (N/A)0 .. 20,000NAN%00:00 (00:00)Unsin Studio, EJRGamesUnsin Studio
301 Over the Alps Mar 31, 2020 $12.99N/A (N/A)0 .. 20,000NAN%00:00 (00:00)Stave StudiosStave Studios
302 Krampus is Home Mar 22, 2019 $14.99N/A (N/A)0 .. 20,000NAN%00:00 (00:00)Regl StudiosRegl Studios
303 Kill or Love Feb 7, 2020 FreeN/A (N/A)50,000 .. 100,000NAN%00:00 (00:00)Andy ChurchAndy Church
304 Sumatra: Fate of Yandi May 14, 2019 $4.19N/A (N/A)0 .. 20,000NAN%00:00 (00:00)Cloak and Dagger GamesCloak and Dagger Games
305 Dead Dreams Feb 6, 2020 $7.99N/A (N/A)0 .. 20,000NAN%00:00 (00:00)Aiaz MarxAiaz Marx
306 World of Virtual Reality VR May 11, 2019 $5.99N/A (N/A)0 .. 20,000NAN%00:00 (00:00)Shadowless Gaming, Tamer GölgesizShadowless Gaming, Tamer Gölgesiz
Overview

Thriller

Games with this tag: 306
Average userscore: N/A%
Average metascore: 70.17%
Average playtime: 01:54
Total copies owned: 32,608,000
Average price: $10.11
Help

Owners: Estimated number of people owning this game. The number might be way too small for new releases and sometimes way too big for games that had free weekend event recently. Read more on About page.

Playtime: Average hours played in total per person that have actually launched this game since March 2009. This time is calculated for the whole lifetime, not for the particular year.

Average score: Average users and metacritic score for all games with this score assigned.

Average playtime: Average lifetime playtime for all games where this data is available.

Games in this genre: Self-explaining - number of games with this tag. Only inculdes games with sales data available.

Total copies owned: Refers to total copies of games with this tag acquired by users for the lifetime. Includes copies sold, downloaded for free and given out.

This number might be too small for recently released games or too big for games that had a free weekend in the last couple of months.

Graphs

Login required.

Please register or log in to see this information.

Login required.

Please register or log in to see this information.